createdAt,value
2017-06-19T00:00:35.960Z,3.80
2017-06-19T00:03:05.103Z,3.47
2017-06-19T00:05:34.372Z,4.05
2017-06-19T00:08:03.534Z,3.43
2017-06-19T00:10:32.679Z,3.40
2017-06-19T00:13:01.831Z,3.80
2017-06-19T00:15:30.977Z,3.37
2017-06-19T00:18:00.154Z,2.60
2017-06-19T00:20:29.463Z,3.23
2017-06-19T00:23:04.536Z,2.80
2017-06-19T00:25:33.695Z,3.43
2017-06-19T00:28:02.838Z,2.73
2017-06-19T00:30:32.023Z,3.67
2017-06-19T00:33:01.163Z,3.20
2017-06-19T00:35:30.425Z,3.17
2017-06-19T00:37:59.614Z,3.08
2017-06-19T00:40:28.774Z,3.80
2017-06-19T00:42:57.944Z,3.30
2017-06-19T00:45:27.094Z,3.17
2017-06-19T00:47:56.250Z,2.97
2017-06-19T00:50:25.500Z,3.70
2017-06-19T00:52:54.688Z,3.42
2017-06-19T00:55:23.819Z,3.00
2017-06-19T00:57:52.987Z,3.10
2017-06-19T01:00:22.143Z,3.10
2017-06-19T01:02:51.287Z,2.40
2017-06-19T01:05:20.557Z,3.07
2017-06-19T01:07:49.731Z,3.35
2017-06-19T01:10:18.882Z,3.30
2017-06-19T01:12:48.035Z,3.30
2017-06-19T01:15:17.185Z,3.00
2017-06-19T01:17:46.343Z,2.83
2017-06-19T01:20:15.494Z,2.90
2017-06-19T01:22:44.638Z,3.57
2017-06-19T01:25:13.857Z,3.15
2017-06-19T01:27:42.997Z,2.83
2017-06-19T01:30:12.155Z,3.10
2017-06-19T01:32:41.297Z,2.90
2017-06-19T01:35:10.456Z,3.08
2017-06-19T01:37:39.627Z,3.35
2017-06-19T01:40:08.766Z,2.62
2017-06-19T01:42:37.922Z,3.65
2017-06-19T01:45:07.090Z,3.10
2017-06-19T01:47:36.236Z,3.67
2017-06-19T01:50:05.397Z,3.53
2017-06-19T01:52:34.543Z,3.12
2017-06-19T01:55:03.702Z,2.92
2017-06-19T01:57:32.862Z,2.90
2017-06-19T02:00:02.033Z,3.35
2017-06-19T02:02:31.191Z,3.20
2017-06-19T02:05:00.335Z,3.28
2017-06-19T02:07:29.487Z,3.33
2017-06-19T02:09:58.656Z,3.25
2017-06-19T02:12:27.799Z,3.00
2017-06-19T02:14:56.963Z,3.35
2017-06-19T02:17:26.105Z,3.20
2017-06-19T02:19:55.296Z,2.60
2017-06-19T02:22:24.456Z,3.33
2017-06-19T02:24:53.604Z,3.00
2017-06-19T02:27:22.750Z,3.35
2017-06-19T02:29:51.909Z,3.35
2017-06-19T02:32:21.072Z,2.83
2017-06-19T02:34:50.221Z,2.53
2017-06-19T02:37:19.387Z,3.10
2017-06-19T02:39:48.539Z,3.80
2017-06-19T02:42:17.711Z,2.78
2017-06-19T02:44:46.859Z,2.90
2017-06-19T02:47:16.010Z,2.90
2017-06-19T02:49:45.170Z,3.30
2017-06-19T02:52:14.323Z,3.10
2017-06-19T02:54:43.482Z,3.12
2017-06-19T02:57:12.634Z,3.03
2017-06-19T02:59:41.794Z,2.90
2017-06-19T03:02:10.947Z,2.60
2017-06-19T03:04:40.107Z,3.10
2017-06-19T03:07:09.260Z,3.40
2017-06-19T03:09:38.401Z,2.90
2017-06-19T03:12:07.561Z,3.12
2017-06-19T03:14:36.713Z,2.97
2017-06-19T03:17:05.861Z,3.37
2017-06-19T03:19:35.008Z,2.80
2017-06-19T03:22:04.150Z,2.92
2017-06-19T03:24:33.302Z,3.75
2017-06-19T03:27:02.458Z,3.20
2017-06-19T03:29:31.602Z,3.37
2017-06-19T03:32:00.758Z,3.30
2017-06-19T03:34:29.912Z,3.50
2017-06-19T03:36:59.053Z,3.17
2017-06-19T03:39:28.207Z,3.30
2017-06-19T03:41:57.380Z,3.17
2017-06-19T03:44:26.527Z,2.90
2017-06-19T03:46:55.680Z,3.42
2017-06-19T03:49:24.835Z,2.90
2017-06-19T03:51:53.987Z,3.28
2017-06-19T03:54:23.138Z,3.00
2017-06-19T03:56:52.303Z,2.80
2017-06-19T03:59:21.442Z,2.80
2017-06-19T04:01:50.614Z,3.53
2017-06-19T04:04:19.766Z,3.17
2017-06-19T04:06:48.912Z,3.70
2017-06-19T04:09:18.066Z,3.50
2017-06-19T04:11:47.261Z,3.47
2017-06-19T04:14:16.416Z,3.08
2017-06-19T04:16:45.579Z,3.25
2017-06-19T04:19:14.727Z,3.33
2017-06-19T04:21:43.982Z,3.35
2017-06-19T04:24:13.151Z,3.70
2017-06-19T04:26:42.292Z,3.80
2017-06-19T04:29:11.450Z,3.28
2017-06-19T04:31:40.598Z,3.43
2017-06-19T04:34:09.762Z,3.33
2017-06-19T04:36:38.980Z,3.00
2017-06-19T04:39:08.130Z,3.40
2017-06-19T04:41:37.298Z,3.43
2017-06-19T04:44:06.430Z,3.80
2017-06-19T04:46:35.591Z,3.17
2017-06-19T04:49:04.755Z,3.25
2017-06-19T04:51:34.023Z,3.50
2017-06-19T04:54:03.187Z,3.30
2017-06-19T04:56:32.327Z,3.47
2017-06-19T04:59:01.615Z,3.43
2017-06-19T05:01:30.743Z,3.10
2017-06-19T05:03:59.894Z,3.50
2017-06-19T05:06:29.086Z,3.40
2017-06-19T05:08:58.310Z,3.33
2017-06-19T05:11:27.461Z,3.20
2017-06-19T05:13:56.601Z,3.50
2017-06-19T05:16:25.747Z,3.37
2017-06-19T05:18:54.908Z,2.80
2017-06-19T05:21:24.105Z,3.50
2017-06-19T05:23:53.273Z,3.60
2017-06-19T05:26:22.405Z,3.43
2017-06-19T05:28:51.559Z,3.73
2017-06-19T05:31:20.714Z,3.00
2017-06-19T05:33:49.865Z,2.93
2017-06-19T05:36:19.169Z,3.53
2017-06-19T05:38:48.314Z,2.83
2017-06-19T05:41:17.442Z,3.30
2017-06-19T05:43:46.598Z,3.00
2017-06-19T05:46:15.737Z,3.43
2017-06-19T05:48:44.877Z,3.40
2017-06-19T05:51:14.117Z,3.40
2017-06-19T05:53:43.249Z,3.43
2017-06-19T05:56:12.409Z,3.10
2017-06-19T05:58:41.551Z,3.17
2017-06-19T06:01:10.703Z,2.90
2017-06-19T06:03:39.863Z,3.50
2017-06-19T06:06:09.127Z,4.20
2017-06-19T06:08:38.264Z,2.97
2017-06-19T06:11:07.410Z,4.47
2017-06-19T06:13:36.552Z,3.40
2017-06-19T06:16:05.710Z,3.27
2017-06-19T06:18:34.853Z,2.90
2017-06-19T06:21:04.145Z,3.30
2017-06-19T06:23:33.294Z,2.83
2017-06-19T06:26:02.447Z,3.50
2017-06-19T06:28:31.613Z,3.40
2017-06-19T06:31:00.761Z,3.83
2017-06-19T06:33:29.898Z,3.03
2017-06-19T06:35:59.145Z,2.90
2017-06-19T06:38:28.271Z,3.00
2017-06-19T06:40:57.439Z,3.30
2017-06-19T06:43:26.574Z,3.00
2017-06-19T06:45:55.743Z,2.70
2017-06-19T06:48:24.880Z,3.20
2017-06-19T06:50:54.110Z,3.80
2017-06-19T06:53:23.265Z,3.37
2017-06-19T06:55:52.417Z,3.00
2017-06-19T06:58:21.551Z,3.00
2017-06-19T07:00:50.708Z,3.00
2017-06-19T07:03:19.864Z,3.10
2017-06-19T07:05:49.181Z,3.20
2017-06-19T07:08:18.314Z,3.20
2017-06-19T07:10:47.476Z,3.03
2017-06-19T07:13:16.619Z,2.80
2017-06-19T07:15:45.762Z,3.07
2017-06-19T07:18:14.954Z,2.87
2017-06-19T07:20:44.128Z,3.10
2017-06-19T07:23:13.274Z,3.30
2017-06-19T07:25:43.092Z,2.97
2017-06-19T07:28:12.234Z,2.60
2017-06-19T07:30:41.394Z,2.67
2017-06-19T07:33:10.539Z,2.60
2017-06-19T07:35:39.809Z,4.37
2017-06-19T07:38:08.935Z,2.33
2017-06-19T07:40:38.083Z,2.37
2017-06-19T07:43:07.244Z,2.80
2017-06-19T07:45:36.377Z,2.50
2017-06-19T07:48:05.511Z,2.80
2017-06-19T07:50:34.814Z,2.63
2017-06-19T07:53:03.954Z,2.60
2017-06-19T07:55:33.110Z,2.70
2017-06-19T07:58:02.265Z,2.53
2017-06-19T08:00:31.406Z,3.20
2017-06-19T08:03:00.571Z,2.80
2017-06-19T08:05:29.843Z,2.77
2017-06-19T08:07:58.988Z,2.70
2017-06-19T08:10:28.118Z,2.33
2017-06-19T08:12:57.281Z,2.43
2017-06-19T08:15:26.427Z,2.70
2017-06-19T08:17:55.581Z,2.40
2017-06-19T08:20:24.857Z,2.63
2017-06-19T08:22:53.987Z,3.27
2017-06-19T08:25:23.128Z,2.60
2017-06-19T08:27:52.266Z,2.30
2017-06-19T08:30:21.414Z,2.13
2017-06-19T08:32:50.564Z,3.13
2017-06-19T08:35:19.739Z,2.47
2017-06-19T08:37:48.881Z,2.60
2017-06-19T08:40:18.015Z,2.60
2017-06-19T08:42:47.167Z,2.83
2017-06-19T08:45:16.315Z,2.93
2017-06-19T08:47:45.451Z,2.33
2017-06-19T08:50:14.607Z,2.47
2017-06-19T08:52:43.762Z,2.63
2017-06-19T08:55:12.914Z,2.27
2017-06-19T08:57:42.054Z,2.83
2017-06-19T09:00:11.191Z,2.50
2017-06-19T09:02:40.343Z,2.63
2017-06-19T09:05:09.483Z,3.10
2017-06-19T09:07:38.630Z,2.10
2017-06-19T09:10:07.774Z,2.90
2017-06-19T09:12:36.922Z,3.03
2017-06-19T09:15:06.055Z,2.97
2017-06-19T09:17:35.209Z,2.80
2017-06-19T09:20:04.369Z,2.97
2017-06-19T09:22:33.507Z,3.20
2017-06-19T09:25:02.636Z,2.77
2017-06-19T09:27:31.783Z,2.90
2017-06-19T09:30:00.923Z,2.93
2017-06-19T09:32:30.066Z,3.30
2017-06-19T09:34:59.198Z,3.17
2017-06-19T09:37:28.352Z,2.87
2017-06-19T09:39:57.495Z,3.63
2017-06-19T09:42:26.645Z,2.80
2017-06-19T09:44:55.803Z,3.23
2017-06-19T09:47:24.955Z,3.20
2017-06-19T09:49:54.099Z,3.90
2017-06-19T09:52:23.225Z,3.40
2017-06-19T09:54:52.379Z,3.63
2017-06-19T09:57:21.511Z,3.50
2017-06-19T09:59:50.650Z,3.40
2017-06-19T10:02:19.800Z,2.40
2017-06-19T10:04:48.938Z,2.73
2017-06-19T10:07:18.092Z,2.90
2017-06-19T10:09:47.233Z,2.80
2017-06-19T10:12:16.387Z,3.23
2017-06-19T10:14:45.532Z,3.17
2017-06-19T10:17:14.671Z,2.77
2017-06-19T10:19:43.835Z,3.10
2017-06-19T10:22:13.053Z,3.10
2017-06-19T10:24:42.185Z,3.20
2017-06-19T10:27:11.327Z,3.10
2017-06-19T10:29:40.467Z,2.83
2017-06-19T10:32:09.611Z,3.40
2017-06-19T10:34:38.759Z,3.33
2017-06-19T10:37:07.898Z,3.33
2017-06-19T10:39:37.057Z,3.27
2017-06-19T10:42:06.212Z,3.10
2017-06-19T10:44:35.357Z,2.57
2017-06-19T10:47:04.504Z,3.50
2017-06-19T10:49:33.647Z,3.23
2017-06-19T10:52:02.790Z,3.80
2017-06-19T10:54:31.943Z,2.80
2017-06-19T10:57:01.105Z,3.03
2017-06-19T10:59:30.240Z,4.03
2017-06-19T11:01:59.397Z,3.40
2017-06-19T11:04:28.543Z,3.40
2017-06-19T11:06:57.731Z,3.37
2017-06-19T11:09:26.872Z,3.50
2017-06-19T11:11:56.006Z,3.30
2017-06-19T11:14:25.164Z,3.50
2017-06-19T11:16:54.306Z,3.20
2017-06-19T11:19:23.441Z,4.00
2017-06-19T11:21:52.637Z,3.27
2017-06-19T11:24:21.779Z,3.47
2017-06-19T11:26:50.950Z,3.10
2017-06-19T11:29:20.098Z,3.10
2017-06-19T11:31:49.239Z,2.97
2017-06-19T11:34:18.396Z,3.40
2017-06-19T11:36:47.585Z,3.03
2017-06-19T11:39:16.748Z,3.40
2017-06-19T11:41:45.874Z,3.30
2017-06-19T11:44:15.016Z,3.50
2017-06-19T11:46:44.168Z,3.07
2017-06-19T11:49:13.313Z,3.90
2017-06-19T11:51:42.471Z,3.37
2017-06-19T11:54:11.623Z,3.30
2017-06-19T11:56:40.763Z,3.00
2017-06-19T11:59:09.919Z,3.27
2017-06-19T12:01:39.083Z,3.30
2017-06-19T12:04:08.227Z,3.10
2017-06-19T12:06:37.396Z,3.23
2017-06-19T12:09:06.543Z,3.43
2017-06-19T12:11:35.699Z,2.97
2017-06-19T12:14:04.830Z,3.07
2017-06-19T12:16:33.984Z,3.00
2017-06-19T12:19:03.134Z,3.30
2017-06-19T12:21:32.295Z,3.30
2017-06-19T12:24:01.444Z,3.37
2017-06-19T12:26:30.587Z,3.20
2017-06-19T12:28:59.733Z,2.80
2017-06-19T12:31:28.895Z,3.73
2017-06-19T12:33:58.041Z,2.77
2017-06-19T12:36:27.217Z,2.87
2017-06-19T12:38:56.344Z,3.20
2017-06-19T12:41:25.482Z,3.03
2017-06-19T12:43:54.626Z,2.40
2017-06-19T12:46:23.766Z,3.00
2017-06-19T12:48:52.926Z,2.70
2017-06-19T12:51:22.062Z,3.00
2017-06-19T12:53:51.208Z,2.93
2017-06-19T12:56:20.356Z,3.23
2017-06-19T12:58:49.507Z,3.10
2017-06-19T13:01:18.642Z,3.03
2017-06-19T13:03:47.789Z,3.07
2017-06-19T13:06:16.951Z,3.30
2017-06-19T13:08:46.096Z,5.10
2017-06-19T13:11:15.242Z,3.00
2017-06-19T13:13:44.394Z,3.50
2017-06-19T13:16:13.543Z,3.37
2017-06-19T13:18:42.686Z,3.33
2017-06-19T13:21:11.835Z,3.40
2017-06-19T13:23:40.990Z,5.97
2017-06-19T13:26:10.162Z,3.30
2017-06-19T13:28:39.295Z,3.40
2017-06-19T13:31:08.444Z,3.40
2017-06-19T13:33:37.588Z,3.53
2017-06-19T13:36:06.736Z,3.33
2017-06-19T13:38:35.881Z,3.00
2017-06-19T13:41:05.023Z,3.70
2017-06-19T13:43:34.175Z,4.30
2017-06-19T13:46:03.314Z,3.50
2017-06-19T13:48:32.442Z,3.40
2017-06-19T13:51:01.633Z,3.73
2017-06-19T13:53:30.776Z,3.10
2017-06-19T13:55:59.926Z,4.00
2017-06-19T13:58:29.058Z,3.63
2017-06-19T14:00:58.214Z,3.70
2017-06-19T14:03:27.375Z,3.67
2017-06-19T14:05:56.518Z,3.80
2017-06-19T14:08:25.661Z,3.40
2017-06-19T14:10:54.821Z,3.77
2017-06-19T14:13:23.949Z,3.60
2017-06-19T14:15:53.087Z,4.07
2017-06-19T14:18:22.251Z,4.03
2017-06-19T14:20:51.412Z,4.00
2017-06-19T14:23:20.562Z,3.40
2017-06-19T14:25:49.700Z,3.60
2017-06-19T14:28:18.838Z,3.33
2017-06-19T14:30:47.986Z,3.33
2017-06-19T14:33:17.138Z,3.53
2017-06-19T14:35:46.289Z,3.57
2017-06-19T14:38:15.433Z,3.90
2017-06-19T14:40:44.569Z,3.90
2017-06-19T14:43:13.733Z,4.20
2017-06-19T14:45:42.871Z,4.07
2017-06-19T14:48:12.041Z,3.70
2017-06-19T14:50:41.191Z,3.60
2017-06-19T14:53:10.341Z,3.63
2017-06-19T14:55:39.496Z,4.20
2017-06-19T14:58:08.648Z,4.10
2017-06-19T15:00:37.787Z,4.07
2017-06-19T15:03:06.943Z,3.90
2017-06-19T15:05:36.101Z,4.20
2017-06-19T15:08:05.246Z,4.77
2017-06-19T15:10:34.389Z,4.13
2017-06-19T15:13:03.539Z,3.60
2017-06-19T15:15:32.703Z,3.63
2017-06-19T15:18:01.843Z,3.60
2017-06-19T15:20:30.999Z,3.97
2017-06-19T15:23:00.155Z,3.63
2017-06-19T15:25:29.290Z,3.70
2017-06-19T15:27:58.451Z,3.80
2017-06-19T15:30:27.587Z,3.73
2017-06-19T15:32:56.742Z,3.47
2017-06-19T15:35:25.928Z,3.40
2017-06-19T15:37:55.096Z,4.00
2017-06-19T15:40:24.234Z,3.80
2017-06-19T15:42:53.381Z,4.30
2017-06-19T15:45:22.519Z,3.50
2017-06-19T15:47:51.659Z,4.30
2017-06-19T15:50:20.886Z,4.20
2017-06-19T15:52:50.035Z,4.27
2017-06-19T15:55:19.170Z,3.93
2017-06-19T15:57:48.329Z,3.70
2017-06-19T16:00:17.471Z,4.73
2017-06-19T16:02:46.608Z,4.13
2017-06-19T16:05:15.774Z,5.00
2017-06-19T16:07:44.942Z,4.50
2017-06-19T16:10:14.120Z,4.00
2017-06-19T16:12:43.252Z,4.07
2017-06-19T16:15:12.401Z,3.97
2017-06-19T16:17:41.545Z,4.53
2017-06-19T16:20:10.697Z,3.70
2017-06-19T16:22:39.871Z,4.00
2017-06-19T16:25:09.011Z,4.70
2017-06-19T16:27:38.155Z,4.20
2017-06-19T16:30:07.315Z,4.47
2017-06-19T16:32:37.542Z,4.60
2017-06-19T16:35:06.698Z,4.57
2017-06-19T16:37:35.862Z,4.27
2017-06-19T16:40:04.997Z,5.20
2017-06-19T16:42:34.158Z,4.63
2017-06-19T16:45:03.329Z,4.10
2017-06-19T16:47:32.457Z,4.37
2017-06-19T16:50:01.605Z,4.40
2017-06-19T16:52:30.753Z,5.00
2017-06-19T16:54:59.895Z,4.80
2017-06-19T16:57:29.047Z,4.50
2017-06-19T16:59:58.190Z,4.30
2017-06-19T17:02:27.330Z,4.63
2017-06-19T17:04:56.487Z,4.10
2017-06-19T17:07:25.650Z,4.27
2017-06-19T17:09:54.798Z,4.60
2017-06-19T17:12:23.958Z,4.10
2017-06-19T17:14:53.113Z,4.23
2017-06-19T17:17:22.282Z,4.93
2017-06-19T17:19:51.409Z,4.57
2017-06-19T17:22:20.576Z,4.70
2017-06-19T17:24:49.715Z,4.63
2017-06-19T17:27:18.883Z,5.00
2017-06-19T17:29:48.037Z,4.60
2017-06-19T17:32:17.171Z,4.10
2017-06-19T17:34:46.323Z,4.70
2017-06-19T17:37:15.467Z,4.70
2017-06-19T17:39:44.634Z,3.90
2017-06-19T17:42:13.775Z,4.27
2017-06-19T17:44:42.910Z,4.63
2017-06-19T17:47:12.062Z,4.50
2017-06-19T17:49:41.224Z,5.03
2017-06-19T17:52:10.374Z,4.60
2017-06-19T17:54:39.781Z,4.70
2017-06-19T17:57:08.923Z,5.17
2017-06-19T17:59:38.066Z,4.40
2017-06-19T18:02:07.211Z,6.03
2017-06-19T18:04:36.359Z,4.97
2017-06-19T18:07:05.508Z,4.90
2017-06-19T18:09:34.640Z,6.13
2017-06-19T18:12:03.781Z,5.00
2017-06-19T18:14:32.937Z,4.37
2017-06-19T18:17:02.062Z,4.80
2017-06-19T18:19:31.224Z,4.70
2017-06-19T18:22:00.371Z,5.43
2017-06-19T18:24:29.557Z,5.03
2017-06-19T18:26:58.723Z,5.00
2017-06-19T18:29:27.875Z,5.50
2017-06-19T18:31:57.003Z,4.60
2017-06-19T18:34:26.169Z,4.97
2017-06-19T18:36:55.348Z,5.37
2017-06-19T18:39:24.487Z,6.03
2017-06-19T18:41:53.650Z,5.03
2017-06-19T18:44:22.774Z,4.70
2017-06-19T18:46:51.930Z,5.20
2017-06-19T18:49:21.058Z,4.97
2017-06-19T18:51:50.222Z,5.50
2017-06-19T18:54:19.378Z,5.13
2017-06-19T18:56:48.520Z,6.07
2017-06-19T18:59:17.693Z,7.07
2017-06-19T19:01:46.837Z,8.47
2017-06-19T19:04:15.965Z,7.00
2017-06-19T19:06:45.145Z,6.53
2017-06-19T19:09:14.279Z,7.43
2017-06-19T19:11:43.436Z,6.50
2017-06-19T19:14:12.571Z,5.70
2017-06-19T19:16:41.719Z,5.80
2017-06-19T19:19:10.882Z,9.07
2017-06-19T19:21:40.011Z,6.20
2017-06-19T19:24:09.188Z,6.20
2017-06-19T19:26:38.346Z,6.00
2017-06-19T19:29:07.522Z,6.30
2017-06-19T19:31:36.664Z,6.23
2017-06-19T19:34:05.801Z,4.93
2017-06-19T19:36:34.967Z,5.90
2017-06-19T19:39:04.122Z,6.07
2017-06-19T19:41:33.279Z,5.53
2017-06-19T19:44:02.425Z,6.30
2017-06-19T19:46:31.576Z,6.77
2017-06-19T19:49:00.727Z,6.20
2017-06-19T19:51:29.881Z,6.40
2017-06-19T19:53:59.064Z,6.27
2017-06-19T19:56:28.198Z,6.00
2017-06-19T19:58:57.363Z,6.30
2017-06-19T20:01:26.522Z,6.03
2017-06-19T20:03:55.672Z,5.90
2017-06-19T20:06:24.809Z,5.33
2017-06-19T20:08:53.979Z,6.13
2017-06-19T20:11:23.147Z,6.10
2017-06-19T20:13:52.297Z,6.23
2017-06-19T20:16:21.442Z,5.83
2017-06-19T20:18:50.592Z,6.27
2017-06-19T20:21:19.752Z,5.90
2017-06-19T20:23:48.910Z,6.17
2017-06-19T20:26:18.076Z,5.63
2017-06-19T20:28:47.229Z,5.50
2017-06-19T20:31:16.388Z,6.10
2017-06-19T20:33:45.544Z,6.53
2017-06-19T20:36:14.717Z,6.73
2017-06-19T20:38:43.869Z,7.23
2017-06-19T20:41:13.019Z,6.40
2017-06-19T20:43:42.165Z,6.67
2017-06-19T20:46:11.329Z,6.67
2017-06-19T20:48:40.499Z,6.20
2017-06-19T20:51:09.638Z,6.50
2017-06-19T20:53:38.801Z,6.30
2017-06-19T20:56:07.975Z,6.10
2017-06-19T20:58:37.107Z,6.90
2017-06-19T21:01:06.252Z,7.47
2017-06-19T21:03:35.416Z,7.07
2017-06-19T21:06:04.566Z,7.10
2017-06-19T21:08:33.726Z,7.20
2017-06-19T21:11:02.861Z,6.70
2017-06-19T21:13:32.013Z,6.80
2017-06-19T21:16:01.163Z,6.77
2017-06-19T21:18:30.315Z,6.10
2017-06-19T21:20:59.479Z,6.90
2017-06-19T21:23:28.621Z,6.30
2017-06-19T21:25:57.795Z,6.07
2017-06-19T21:28:26.946Z,6.37
2017-06-19T21:30:56.099Z,6.70
2017-06-19T21:33:25.270Z,7.20
2017-06-19T21:35:54.400Z,5.90
2017-06-19T21:38:23.544Z,5.97
2017-06-19T21:40:52.723Z,6.00
2017-06-19T21:43:21.871Z,5.23
2017-06-19T21:45:51.027Z,5.30
2017-06-19T21:48:20.175Z,5.90
2017-06-19T21:50:49.342Z,5.47
2017-06-19T21:53:18.508Z,5.20
2017-06-19T21:55:47.667Z,4.87
2017-06-19T21:58:16.789Z,5.77
2017-06-19T22:00:45.935Z,5.00
2017-06-19T22:03:15.086Z,5.60
2017-06-19T22:05:44.272Z,5.67
2017-06-19T22:08:13.414Z,5.10
2017-06-19T22:10:42.578Z,5.30
2017-06-19T22:13:11.727Z,5.00
2017-06-19T22:15:40.868Z,5.33
2017-06-19T22:18:10.039Z,5.23
2017-06-19T22:20:39.195Z,5.10
2017-06-19T22:23:08.342Z,4.90
2017-06-19T22:25:37.488Z,5.20
2017-06-19T22:28:06.631Z,4.97
2017-06-19T22:30:35.775Z,4.50
2017-06-19T22:33:04.928Z,5.10
2017-06-19T22:35:34.078Z,4.60
2017-06-19T22:38:03.246Z,4.70
2017-06-19T22:40:32.396Z,4.63
2017-06-19T22:43:01.556Z,4.50
2017-06-19T22:45:30.707Z,4.60
2017-06-19T22:47:59.861Z,4.70
2017-06-19T22:50:29.039Z,4.53
2017-06-19T22:52:58.180Z,4.20
2017-06-19T22:55:27.331Z,4.83
2017-06-19T22:57:56.489Z,4.77
2017-06-19T23:00:25.649Z,5.23
2017-06-19T23:02:54.791Z,4.10
2017-06-19T23:05:23.979Z,4.47
2017-06-19T23:07:53.132Z,4.10
2017-06-19T23:10:22.282Z,4.83
2017-06-19T23:12:51.427Z,4.80
2017-06-19T23:15:20.592Z,4.67
2017-06-19T23:17:49.740Z,5.00
2017-06-19T23:20:18.902Z,4.27
2017-06-19T23:22:48.050Z,4.70
2017-06-19T23:25:17.198Z,5.40
2017-06-19T23:27:46.363Z,5.63
2017-06-19T23:30:15.521Z,5.80
2017-06-19T23:32:44.649Z,6.10
2017-06-19T23:35:13.825Z,5.93
2017-06-19T23:37:42.973Z,6.17
2017-06-19T23:40:12.102Z,5.87
2017-06-19T23:42:41.250Z,5.90
2017-06-19T23:45:10.401Z,6.10
2017-06-19T23:47:39.554Z,6.17
2017-06-19T23:50:08.691Z,6.10
2017-06-19T23:52:37.849Z,5.87
2017-06-19T23:55:06.977Z,6.53
2017-06-19T23:57:36.117Z,5.47
